Time;durP1;ratioP1;P1;durP2;ratioP2;P2;SDS_P1;SDS_P2;PMS_P1;PMS_P2;Temp;Humidity;BMP_temperature;BMP_pressure;BME280_temperature;BME280_humidity;BME280_pressure;Samples;Min_cycle;Max_cycle;Signal;HPM_P1;HPM_P2
2023/04/30 00:01:25;;;;;;;5.82;2.35;;;;;;;;;;5050601;28;20032;-70
2023/04/30 00:03:51;;;;;;;4.30;2.90;;;;;;;;;;5051019;28;20021;-70
2023/04/30 00:06:18;;;;;;;4.43;2.80;;;;;;;;;;5050793;28;20025;-70
2023/04/30 00:08:44;;;;;;;2.60;2.33;;;;;;;;;;5050502;28;20037;-70
2023/04/30 00:11:10;;;;;;;3.72;2.80;;;;;;;;;;5050573;28;20025;-70
2023/04/30 00:13:37;;;;;;;5.35;2.65;;;;;;;;;;5050950;28;20025;-70
2023/04/30 00:16:03;;;;;;;6.40;2.83;;;;;;;;;;5050415;28;20025;-70
2023/04/30 00:18:29;;;;;;;3.72;2.30;;;;;;;;;;5051747;28;20580;-70
2023/04/30 00:20:56;;;;;;;3.92;2.38;;;;;;;;;;5054669;28;20020;-70
2023/04/30 00:23:22;;;;;;;2.85;2.38;;;;;;;;;;5054643;28;20033;-69
2023/04/30 00:25:48;;;;;;;3.00;2.50;;;;;;;;;;5054515;28;20021;-70
2023/04/30 00:28:15;;;;;;;5.82;2.83;;;;;;;;;;5053894;28;20025;-69
2023/04/30 00:30:41;;;;;;;5.07;2.40;;;;;;;;;;5054078;28;20233;-69
2023/04/30 00:33:07;;;;;;;6.65;2.78;;;;;;;;;;5054107;28;20024;-70
2023/04/30 00:35:34;;;;;;;4.80;3.08;;;;;;;;;;5053889;28;20424;-70
2023/04/30 00:38:00;;;;;;;6.40;3.10;;;;;;;;;;5054342;28;20025;-70
2023/04/30 00:40:26;;;;;;;8.00;2.70;;;;;;;;;;5053980;28;20017;-70
2023/04/30 00:42:54;;;;;;;6.35;2.53;;;;;;;;;;5053830;28;20017;-69
2023/04/30 00:45:22;;;;;;;3.95;2.80;;;;;;;;;;5053839;28;20020;-70
2023/04/30 00:47:48;;;;;;;8.82;2.70;;;;;;;;;;5053770;28;20043;-70
2023/04/30 00:50:15;;;;;;;5.32;2.58;;;;;;;;;;5054195;28;20025;-69
2023/04/30 00:52:42;;;;;;;5.25;2.83;;;;;;;;;;5053720;28;20039;-70
2023/04/30 00:55:09;;;;;;;7.20;2.50;;;;;;;;;;5054081;28;20021;-70
2023/04/30 00:57:35;;;;;;;5.65;2.58;;;;;;;;;;5053307;28;20614;-70
2023/04/30 01:00:03;;;;;;;7.47;2.80;;;;;;;;;;5053581;28;20017;-70
2023/04/30 01:02:30;;;;;;;3.92;2.33;;;;;;;;;;5052479;28;20021;-70
2023/04/30 01:04:57;;;;;;;5.47;2.25;;;;;;;;;;5054126;28;20074;-69
2023/04/30 01:07:27;;;;;;;4.80;2.15;;;;;;;;;;5085741;28;20041;-69
2023/04/30 01:09:53;;;;;;;8.95;2.40;;;;;;;;;;5053418;28;20021;-70
2023/04/30 01:12:25;;;;;;;9.25;2.60;;;;;;;;;;5052019;28;20028;-69
2023/04/30 01:15:04;;;;;;;8.73;2.25;;;;;;;;;;5053517;28;20029;-70
2023/04/30 01:17:37;;;;;;;4.90;2.30;;;;;;;;;;5052289;28;20043;-70
2023/04/30 01:20:05;;;;;;;5.72;2.10;;;;;;;;;;5053345;28;20013;-69
2023/04/30 01:22:51;;;;;;;4.55;1.90;;;;;;;;;;5053255;28;20039;-69
2023/04/30 01:25:29;;;;;;;7.93;2.40;;;;;;;;;;5053653;28;20013;-70
2023/04/30 01:28:02;;;;;;;5.40;2.58;;;;;;;;;;5052731;28;20424;-70
2023/04/30 01:30:30;;;;;;;5.53;2.42;;;;;;;;;;5053172;28;20037;-69
2023/04/30 01:32:57;;;;;;;7.05;2.47;;;;;;;;;;5052101;28;20031;-69
2023/04/30 01:35:30;;;;;;;5.45;2.28;;;;;;;;;;5053336;28;20025;-70
2023/04/30 01:38:09;;;;;;;7.13;2.40;;;;;;;;;;5053151;28;20048;-69
2023/04/30 01:40:52;;;;;;;8.27;2.55;;;;;;;;;;5051527;28;20505;-70
2023/04/30 01:43:21;;;;;;;6.72;2.47;;;;;;;;;;5052682;28;20017;-70
2023/04/30 01:46:05;;;;;;;3.58;2.08;;;;;;;;;;5052951;28;20032;-70
2023/04/30 01:48:43;;;;;;;7.30;2.55;;;;;;;;;;5053046;28;20040;-70
2023/04/30 01:51:15;;;;;;;5.43;2.47;;;;;;;;;;5053149;28;20053;-69
2023/04/30 01:53:43;;;;;;;6.55;2.58;;;;;;;;;;5052728;28;20344;-70
2023/04/30 01:56:12;;;;;;;5.03;2.47;;;;;;;;;;5052292;28;20162;-69
2023/04/30 01:58:40;;;;;;;5.78;2.30;;;;;;;;;;5052982;28;20021;-70
2023/04/30 02:01:06;;;;;;;5.55;2.40;;;;;;;;;;5052373;28;20028;-69
2023/04/30 02:03:32;;;;;;;6.10;2.42;;;;;;;;;;5052515;28;20025;-70
2023/04/30 02:05:59;;;;;;;4.95;2.33;;;;;;;;;;5052673;28;20025;-70
2023/04/30 02:08:26;;;;;;;5.38;2.15;;;;;;;;;;5052402;28;20114;-70
2023/04/30 02:10:52;;;;;;;5.40;2.08;;;;;;;;;;5052193;28;20397;-69
2023/04/30 02:13:18;;;;;;;5.95;2.13;;;;;;;;;;5052530;28;20031;-70
2023/04/30 02:15:45;;;;;;;4.72;2.00;;;;;;;;;;5052578;28;20013;-69
2023/04/30 02:18:11;;;;;;;4.88;2.38;;;;;;;;;;5052302;28;20033;-69
2023/04/30 02:20:37;;;;;;;10.02;2.33;;;;;;;;;;5052256;28;20017;-70
2023/04/30 02:23:03;;;;;;;3.03;2.03;;;;;;;;;;5052474;28;20021;-70
2023/04/30 02:25:31;;;;;;;7.60;1.98;;;;;;;;;;5052123;28;20035;-70
2023/04/30 02:27:58;;;;;;;7.88;2.45;;;;;;;;;;5050704;28;20405;-69
2023/04/30 02:30:24;;;;;;;5.50;2.20;;;;;;;;;;5051873;28;20053;-70
2023/04/30 02:32:50;;;;;;;4.63;1.58;;;;;;;;;;5052268;28;20044;-70
2023/04/30 02:35:17;;;;;;;4.45;1.90;;;;;;;;;;5051820;28;20025;-70
2023/04/30 02:37:43;;;;;;;6.60;2.17;;;;;;;;;;5052387;28;20017;-70
2023/04/30 02:40:10;;;;;;;2.70;1.75;;;;;;;;;;5051364;28;20037;-69
2023/04/30 02:42:37;;;;;;;3.78;2.20;;;;;;;;;;5051226;28;20390;-70
2023/04/30 02:45:04;;;;;;;4.60;1.67;;;;;;;;;;5051784;28;20036;-70
2023/04/30 02:47:30;;;;;;;3.97;1.48;;;;;;;;;;5051728;28;20036;-70
2023/04/30 02:49:56;;;;;;;5.68;1.80;;;;;;;;;;5051568;28;20410;-70
2023/04/30 02:52:23;;;;;;;3.25;2.00;;;;;;;;;;5051659;28;20021;-70
2023/04/30 02:54:49;;;;;;;11.75;1.98;;;;;;;;;;5051537;28;20028;-70
2023/04/30 02:57:15;;;;;;;3.17;1.98;;;;;;;;;;5051635;28;20025;-70
2023/04/30 02:59:44;;;;;;;6.32;2.10;;;;;;;;;;5051549;28;20017;-69
2023/04/30 03:02:12;;;;;;;9.32;1.90;;;;;;;;;;5031585;28;20033;-70
2023/04/30 03:04:38;;;;;;;2.00;1.70;;;;;;;;;;5030264;28;20040;-70
2023/04/30 03:07:05;;;;;;;4.57;1.98;;;;;;;;;;5031617;28;20021;-70
2023/04/30 03:09:32;;;;;;;4.10;1.52;;;;;;;;;;5031282;28;20036;-70
2023/04/30 03:11:58;;;;;;;7.57;1.70;;;;;;;;;;5031732;28;20021;-70
2023/04/30 03:14:25;;;;;;;5.70;1.38;;;;;;;;;;5031364;28;20402;-69
2023/04/30 03:16:51;;;;;;;5.53;1.88;;;;;;;;;;5031446;28;20044;-70
2023/04/30 03:19:20;;;;;;;4.80;1.92;;;;;;;;;;5031316;28;20022;-69
2023/04/30 03:21:47;;;;;;;4.97;1.75;;;;;;;;;;5031197;28;20429;-70
2023/04/30 03:24:13;;;;;;;6.13;1.90;;;;;;;;;;5031160;28;20466;-70
2023/04/30 03:26:40;;;;;;;4.47;1.70;;;;;;;;;;5031169;28;20035;-70
2023/04/30 03:29:06;;;;;;;3.47;1.75;;;;;;;;;;5030917;28;20642;-70
2023/04/30 03:31:32;;;;;;;3.15;1.60;;;;;;;;;;5031163;28;20533;-70
2023/04/30 03:33:59;;;;;;;3.25;1.70;;;;;;;;;;5031300;28;20026;-69
2023/04/30 03:36:26;;;;;;;3.20;2.00;;;;;;;;;;5031164;28;20018;-69
2023/04/30 03:38:52;;;;;;;4.30;2.00;;;;;;;;;;5030796;28;20051;-70
2023/04/30 03:41:19;;;;;;;5.40;1.58;;;;;;;;;;5031289;28;20018;-70
2023/04/30 03:43:45;;;;;;;3.05;1.60;;;;;;;;;;5036723;28;20025;-69
2023/04/30 03:46:12;;;;;;;2.83;1.55;;;;;;;;;;5050769;28;20489;-69
2023/04/30 03:48:38;;;;;;;3.58;1.85;;;;;;;;;;5051027;28;20047;-70
2023/04/30 03:51:04;;;;;;;3.65;1.90;;;;;;;;;;5050763;28;20028;-70
2023/04/30 03:53:31;;;;;;;2.45;1.60;;;;;;;;;;5051802;28;20404;-69
2023/04/30 03:55:57;;;;;;;2.97;2.05;;;;;;;;;;5054671;28;20029;-70
2023/04/30 03:58:24;;;;;;;6.68;2.40;;;;;;;;;;5054955;28;20394;-70
2023/04/30 04:00:50;;;;;;;4.10;2.72;;;;;;;;;;5054613;28;20025;-70
2023/04/30 04:03:16;;;;;;;6.93;2.30;;;;;;;;;;5054777;28;20029;-69
2023/04/30 04:05:43;;;;;;;4.97;2.70;;;;;;;;;;5054617;28;20031;-69
2023/04/30 04:08:09;;;;;;;4.15;2.90;;;;;;;;;;5053371;28;20391;-70
2023/04/30 04:10:36;;;;;;;4.53;2.90;;;;;;;;;;5054629;28;20027;-69
2023/04/30 04:13:02;;;;;;;8.93;2.67;;;;;;;;;;5054814;28;20500;-70
2023/04/30 04:15:28;;;;;;;7.85;2.70;;;;;;;;;;5054739;28;20138;-70
2023/04/30 04:17:55;;;;;;;5.45;3.22;;;;;;;;;;5054602;28;20025;-70
2023/04/30 04:20:21;;;;;;;4.60;2.65;;;;;;;;;;5054240;28;20486;-69
2023/04/30 04:22:47;;;;;;;3.00;2.63;;;;;;;;;;5054353;28;20436;-70
2023/04/30 04:25:16;;;;;;;3.97;2.47;;;;;;;;;;5054660;28;20013;-70
2023/04/30 04:27:42;;;;;;;1.85;1.75;;;;;;;;;;5054359;28;20059;-70
2023/04/30 04:30:09;;;;;;;6.35;1.83;;;;;;;;;;5054060;28;20045;-70
2023/04/30 04:32:47;;;;;;;5.90;1.90;;;;;;;;;;5054258;28;20466;-70
2023/04/30 04:35:14;;;;;;;3.70;2.05;;;;;;;;;;5053972;28;20025;-71
2023/04/30 04:37:41;;;;;;;2.95;1.73;;;;;;;;;;5053058;28;20462;-69
2023/04/30 04:40:08;;;;;;;2.20;1.70;;;;;;;;;;5054000;28;20047;-70
2023/04/30 04:42:34;;;;;;;2.75;1.90;;;;;;;;;;5053885;28;20017;-70
2023/04/30 04:45:02;;;;;;;7.10;2.03;;;;;;;;;;5054058;28;20490;-70
2023/04/30 04:47:28;;;;;;;6.80;1.80;;;;;;;;;;5054019;28;20036;-70
2023/04/30 04:49:55;;;;;;;4.38;1.90;;;;;;;;;;5053648;28;20490;-70
2023/04/30 04:52:21;;;;;;;2.80;1.85;;;;;;;;;;5053954;28;20492;-69
2023/04/30 04:54:47;;;;;;;3.20;1.65;;;;;;;;;;5054021;28;20033;-69
2023/04/30 04:57:14;;;;;;;3.75;1.70;;;;;;;;;;5053543;28;20395;-70
2023/04/30 04:59:40;;;;;;;2.30;1.67;;;;;;;;;;5053603;28;20508;-70
2023/04/30 05:02:06;;;;;;;2.53;1.58;;;;;;;;;;5053546;28;20021;-70
2023/04/30 05:04:33;;;;;;;5.20;1.60;;;;;;;;;;5052922;28;20043;-70
2023/04/30 05:06:59;;;;;;;4.95;1.90;;;;;;;;;;5053628;28;20032;-69
2023/04/30 05:09:26;;;;;;;2.75;1.92;;;;;;;;;;5053244;28;20032;-70
2023/04/30 05:11:52;;;;;;;4.57;1.92;;;;;;;;;;5053367;28;20021;-70
2023/04/30 05:14:19;;;;;;;2.33;1.88;;;;;;;;;;5053485;28;20033;-70
2023/04/30 05:16:46;;;;;;;2.15;1.95;;;;;;;;;;5053126;28;20019;-70
2023/04/30 05:19:12;;;;;;;2.85;1.50;;;;;;;;;;5053078;28;20017;-70
2023/04/30 05:21:39;;;;;;;2.08;1.73;;;;;;;;;;5053638;28;20029;-70
2023/04/30 05:24:05;;;;;;;3.10;1.70;;;;;;;;;;5053440;28;20029;-70
2023/04/30 05:26:32;;;;;;;3.95;1.92;;;;;;;;;;5053588;28;20021;-70
2023/04/30 05:28:58;;;;;;;4.93;2.08;;;;;;;;;;5052771;28;20402;-70
2023/04/30 05:31:25;;;;;;;3.08;1.92;;;;;;;;;;5085222;28;20048;-70
2023/04/30 05:33:51;;;;;;;2.97;1.70;;;;;;;;;;5053141;28;20051;-70
2023/04/30 05:36:18;;;;;;;3.33;1.75;;;;;;;;;;5053132;28;20035;-70
2023/04/30 05:38:44;;;;;;;3.30;1.77;;;;;;;;;;5052967;28;20032;-69
2023/04/30 05:41:12;;;;;;;4.78;1.80;;;;;;;;;;5053359;28;20043;-70
2023/04/30 05:43:38;;;;;;;2.80;1.70;;;;;;;;;;5052885;28;20027;-70
2023/04/30 05:46:05;;;;;;;2.72;1.83;;;;;;;;;;5052703;28;20074;-70
2023/04/30 05:48:31;;;;;;;4.65;2.22;;;;;;;;;;5052492;28;20047;-70
2023/04/30 05:50:57;;;;;;;4.68;1.98;;;;;;;;;;5053240;28;20025;-70
2023/04/30 05:53:24;;;;;;;5.40;2.72;;;;;;;;;;5052616;28;20485;-70
2023/04/30 05:55:50;;;;;;;3.47;3.03;;;;;;;;;;5052861;28;20029;-70
2023/04/30 05:58:16;;;;;;;4.38;3.00;;;;;;;;;;5053118;28;20036;-70
2023/04/30 06:00:43;;;;;;;3.08;2.75;;;;;;;;;;5051108;28;20033;-70
2023/04/30 06:03:09;;;;;;;4.95;3.10;;;;;;;;;;5051136;28;20024;-70
2023/04/30 06:05:36;;;;;;;3.05;2.75;;;;;;;;;;5052485;28;20027;-69
2023/04/30 06:08:02;;;;;;;4.07;3.05;;;;;;;;;;5052535;28;20047;-70
2023/04/30 06:10:28;;;;;;;3.42;2.72;;;;;;;;;;5052465;28;20013;-70
2023/04/30 06:12:54;;;;;;;3.70;2.35;;;;;;;;;;5052172;28;20025;-70
2023/04/30 06:15:21;;;;;;;5.05;3.03;;;;;;;;;;5051715;28;20025;-70
2023/04/30 06:17:48;;;;;;;4.85;2.70;;;;;;;;;;5051663;28;20025;-69
2023/04/30 06:20:14;;;;;;;3.13;2.70;;;;;;;;;;5052260;28;20044;-70
2023/04/30 06:22:41;;;;;;;5.75;2.47;;;;;;;;;;5052024;28;20041;-70
2023/04/30 06:25:08;;;;;;;6.38;3.03;;;;;;;;;;5052175;28;20036;-70
2023/04/30 06:27:34;;;;;;;6.60;3.10;;;;;;;;;;5051939;28;20086;-70
2023/04/30 06:30:00;;;;;;;4.22;2.78;;;;;;;;;;5052102;28;20041;-70
2023/04/30 06:32:27;;;;;;;3.63;2.20;;;;;;;;;;5050662;28;20037;-69
2023/04/30 06:34:53;;;;;;;4.60;2.28;;;;;;;;;;5051838;28;20443;-70
2023/04/30 06:37:19;;;;;;;2.63;2.00;;;;;;;;;;5052378;28;20047;-70
2023/04/30 06:39:46;;;;;;;1.75;1.50;;;;;;;;;;5051774;28;20025;-70
2023/04/30 06:42:12;;;;;;;1.45;1.20;;;;;;;;;;5051860;28;20494;-70
2023/04/30 06:44:38;;;;;;;2.55;1.50;;;;;;;;;;5051820;28;20031;-70
2023/04/30 06:47:05;;;;;;;3.33;1.27;;;;;;;;;;5051890;28;20025;-70
2023/04/30 06:49:31;;;;;;;3.30;1.50;;;;;;;;;;5051617;28;20033;-70
2023/04/30 06:51:58;;;;;;;3.85;1.30;;;;;;;;;;5051607;28;20027;-70
2023/04/30 06:54:26;;;;;;;1.65;1.30;;;;;;;;;;5051605;28;20033;-70
2023/04/30 06:56:52;;;;;;;2.35;1.60;;;;;;;;;;5051695;28;20025;-70
2023/04/30 06:59:19;;;;;;;2.10;1.40;;;;;;;;;;5051543;28;20035;-70
2023/04/30 07:01:46;;;;;;;3.15;1.45;;;;;;;;;;5051481;28;20009;-70
2023/04/30 07:04:12;;;;;;;3.78;1.90;;;;;;;;;;5051289;28;20051;-70
2023/04/30 07:06:38;;;;;;;3.03;2.33;;;;;;;;;;5051444;28;20021;-70
2023/04/30 07:09:04;;;;;;;3.08;2.08;;;;;;;;;;5051453;28;20030;-70
2023/04/30 07:11:31;;;;;;;4.95;2.60;;;;;;;;;;5051554;28;20037;-70
2023/04/30 07:13:57;;;;;;;3.00;2.42;;;;;;;;;;5051445;28;20043;-70
2023/04/30 07:16:26;;;;;;;4.35;2.10;;;;;;;;;;5051118;28;20037;-70
2023/04/30 07:18:53;;;;;;;2.60;1.77;;;;;;;;;;5050429;28;20029;-69
2023/04/30 07:21:19;;;;;;;3.13;1.75;;;;;;;;;;5051259;28;20017;-70
2023/04/30 07:23:45;;;;;;;1.90;1.60;;;;;;;;;;5051237;28;20029;-70
2023/04/30 07:26:12;;;;;;;2.33;1.50;;;;;;;;;;5051307;28;20021;-70
2023/04/30 07:28:38;;;;;;;2.53;1.73;;;;;;;;;;5050729;28;20040;-71
2023/04/30 07:31:04;;;;;;;5.38;1.25;;;;;;;;;;5050768;28;20044;-70
2023/04/30 07:33:31;;;;;;;1.83;1.10;;;;;;;;;;5051156;28;20059;-70
2023/04/30 07:35:57;;;;;;;1.92;1.40;;;;;;;;;;5050875;28;20478;-70
2023/04/30 07:38:24;;;;;;;3.15;1.40;;;;;;;;;;5051422;28;20028;-70
2023/04/30 07:40:50;;;;;;;2.05;1.25;;;;;;;;;;5051154;28;20029;-69
2023/04/30 07:43:17;;;;;;;2.65;1.30;;;;;;;;;;5050927;28;20025;-70
2023/04/30 07:45:43;;;;;;;0.82;0.82;;;;;;;;;;5049778;28;20028;-70
2023/04/30 07:48:10;;;;;;;3.30;1.02;;;;;;;;;;5050709;28;20021;-69
2023/04/30 07:50:36;;;;;;;3.30;1.20;;;;;;;;;;5051103;28;20024;-70
2023/04/30 07:53:03;;;;;;;1.92;1.20;;;;;;;;;;5050936;28;20146;-69
2023/04/30 07:55:30;;;;;;;5.30;1.30;;;;;;;;;;5050789;28;20025;-69
2023/04/30 07:57:56;;;;;;;1.70;1.20;;;;;;;;;;5050822;28;20023;-69
2023/04/30 08:00:25;;;;;;;2.95;1.30;;;;;;;;;;5050742;28;20037;-70
2023/04/30 08:02:51;;;;;;;1.30;1.20;;;;;;;;;;5049406;28;20532;-70
2023/04/30 08:05:17;;;;;;;1.23;0.98;;;;;;;;;;5051045;28;20040;-70
2023/04/30 08:07:44;;;;;;;4.53;0.90;;;;;;;;;;5050918;28;20082;-70
2023/04/30 08:10:10;;;;;;;1.10;1.00;;;;;;;;;;5050601;28;20035;-70
2023/04/30 08:12:37;;;;;;;2.55;1.10;;;;;;;;;;5050519;28;20098;-70
2023/04/30 08:15:04;;;;;;;0.98;0.90;;;;;;;;;;5050690;28;20375;-70
2023/04/30 08:17:31;;;;;;;2.58;1.17;;;;;;;;;;5050448;28;20037;-70
2023/04/30 08:19:57;;;;;;;0.73;0.68;;;;;;;;;;5051144;28;20021;-70
2023/04/30 08:22:23;;;;;;;3.53;1.10;;;;;;;;;;5050683;28;20032;-70
2023/04/30 08:24:50;;;;;;;0.98;0.88;;;;;;;;;;5050714;28;20485;-69
2023/04/30 08:27:16;;;;;;;1.33;0.90;;;;;;;;;;5050427;28;20024;-70
2023/04/30 08:29:42;;;;;;;1.75;0.85;;;;;;;;;;5050466;28;20045;-70
2023/04/30 08:32:09;;;;;;;1.50;0.60;;;;;;;;;;5050527;28;20052;-70
2023/04/30 08:34:35;;;;;;;1.52;0.60;;;;;;;;;;5050663;28;20039;-70
2023/04/30 08:37:02;;;;;;;0.75;0.57;;;;;;;;;;5050364;28;20039;-70
2023/04/30 08:39:28;;;;;;;0.88;0.60;;;;;;;;;;5051389;28;20500;-70
2023/04/30 08:41:55;;;;;;;1.67;0.85;;;;;;;;;;5054076;28;20033;-71
2023/04/30 08:44:22;;;;;;;1.45;0.50;;;;;;;;;;5054177;28;20029;-71
2023/04/30 08:46:55;;;;;;;0.75;0.60;;;;;;;;;;5054110;28;20021;-71
2023/04/30 08:49:22;;;;;;;1.38;0.80;;;;;;;;;;5053449;28;20037;-71
2023/04/30 08:51:49;;;;;;;1.08;0.70;;;;;;;;;;5053778;28;20021;-71
2023/04/30 08:54:15;;;;;;;0.93;0.60;;;;;;;;;;5054071;28;20037;-71
2023/04/30 08:56:41;;;;;;;1.35;0.82;;;;;;;;;;5053951;28;20085;-71
2023/04/30 08:59:07;;;;;;;0.60;0.57;;;;;;;;;;5054955;28;20035;-71
2023/04/30 09:01:34;;;;;;;0.65;0.65;;;;;;;;;;5054580;28;20381;-70
2023/04/30 09:04:03;;;;;;;2.13;0.70;;;;;;;;;;5054463;28;20013;-70
2023/04/30 09:06:30;;;;;;;2.25;0.80;;;;;;;;;;5054539;28;20033;-70
2023/04/30 09:08:56;;;;;;;0.90;0.65;;;;;;;;;;5054312;28;20049;-71
2023/04/30 09:11:27;;;;;;;2.65;0.70;;;;;;;;;;5054367;28;20021;-70
2023/04/30 09:13:54;;;;;;;0.70;0.70;;;;;;;;;;5054460;28;20371;-70
2023/04/30 09:16:21;;;;;;;0.95;0.80;;;;;;;;;;5054503;28;20452;-70
2023/04/30 09:18:48;;;;;;;1.77;0.90;;;;;;;;;;5054178;28;20033;-70
2023/04/30 09:21:14;;;;;;;3.83;0.80;;;;;;;;;;5053243;28;20075;-71
2023/04/30 09:24:00;;;;;;;4.10;1.10;;;;;;;;;;5054460;28;20029;-71
2023/04/30 09:26:33;;;;;;;1.85;0.80;;;;;;;;;;5054195;28;20029;-71
2023/04/30 09:29:06;;;;;;;2.83;0.85;;;;;;;;;;5053883;28;20512;-70
2023/04/30 09:31:35;;;;;;;1.75;0.77;;;;;;;;;;5054458;28;20059;-70
2023/04/30 09:34:01;;;;;;;1.05;0.73;;;;;;;;;;5053900;28;20035;-70
2023/04/30 09:36:27;;;;;;;2.40;0.90;;;;;;;;;;5054008;28;20025;-70
2023/04/30 09:38:54;;;;;;;2.80;1.23;;;;;;;;;;5053838;28;20490;-70
2023/04/30 09:41:27;;;;;;;2.13;1.00;;;;;;;;;;5053455;28;20375;-71
2023/04/30 09:43:54;;;;;;;2.03;1.00;;;;;;;;;;5054090;28;20053;-70
2023/04/30 09:46:21;;;;;;;1.58;0.80;;;;;;;;;;5054125;28;20025;-70
2023/04/30 09:48:55;;;;;;;2.40;1.00;;;;;;;;;;5053628;28;20498;-70
2023/04/30 09:51:22;;;;;;;1.20;0.88;;;;;;;;;;5053695;28;20037;-71
2023/04/30 09:53:48;;;;;;;1.02;0.85;;;;;;;;;;5053548;28;20029;-70
2023/04/30 09:56:18;;;;;;;2.55;0.80;;;;;;;;;;5053434;28;20493;-71
2023/04/30 09:58:47;;;;;;;2.53;1.00;;;;;;;;;;5053637;28;20037;-71
2023/04/30 10:01:15;;;;;;;1.45;0.82;;;;;;;;;;5053879;28;20028;-71
2023/04/30 10:03:42;;;;;;;1.70;0.70;;;;;;;;;;5053741;28;20031;-72
2023/04/30 10:06:09;;;;;;;1.27;0.60;;;;;;;;;;5053485;28;20035;-71
2023/04/30 10:08:42;;;;;;;1.63;0.70;;;;;;;;;;5053042;28;20033;-71
2023/04/30 10:11:11;;;;;;;0.65;0.65;;;;;;;;;;5053265;28;20029;-71
2023/04/30 10:13:38;;;;;;;2.03;0.70;;;;;;;;;;5053583;28;20017;-71
2023/04/30 10:16:07;;;;;;;3.08;1.00;;;;;;;;;;5053594;28;20025;-71
2023/04/30 10:18:36;;;;;;;2.75;0.82;;;;;;;;;;5053164;28;20031;-72
2023/04/30 10:21:09;;;;;;;1.20;0.70;;;;;;;;;;5053044;28;20494;-71
2023/04/30 10:23:36;;;;;;;2.95;0.68;;;;;;;;;;5052771;28;20017;-72
2023/04/30 10:26:03;;;;;;;3.47;0.80;;;;;;;;;;5053180;28;20474;-71
2023/04/30 10:28:30;;;;;;;0.73;0.65;;;;;;;;;;5052935;28;20039;-71
2023/04/30 10:30:57;;;;;;;1.38;0.70;;;;;;;;;;5052767;28;20073;-71
2023/04/30 10:33:34;;;;;;;3.15;0.73;;;;;;;;;;5052728;28;20025;-71
2023/04/30 10:36:03;;;;;;;0.95;0.75;;;;;;;;;;5052791;28;20039;-71
2023/04/30 10:38:31;;;;;;;0.70;0.70;;;;;;;;;;5052441;28;20025;-72
2023/04/30 10:40:58;;;;;;;1.15;0.50;;;;;;;;;;5052956;28;20025;-71
2023/04/30 10:43:25;;;;;;;1.80;1.20;;;;;;;;;;5052906;28;20021;-72
2023/04/30 10:45:52;;;;;;;2.35;0.90;;;;;;;;;;5052647;28;20411;-72
2023/04/30 10:48:25;;;;;;;1.13;0.70;;;;;;;;;;5052813;28;20033;-72
2023/04/30 10:50:53;;;;;;;2.80;1.00;;;;;;;;;;5052369;28;20031;-72
2023/04/30 10:53:20;;;;;;;1.25;0.60;;;;;;;;;;5052392;28;20025;-72
2023/04/30 10:55:48;;;;;;;1.13;0.70;;;;;;;;;;5051269;28;20039;-72
2023/04/30 10:58:24;;;;;;;0.77;0.70;;;;;;;;;;5052337;28;20027;-71
2023/04/30 11:01:00;;;;;;;2.70;0.60;;;;;;;;;;5052246;28;20501;-71
2023/04/30 11:03:28;;;;;;;1.05;0.50;;;;;;;;;;5051917;28;20015;-72
2023/04/30 11:05:55;;;;;;;1.13;0.73;;;;;;;;;;5052413;28;20029;-72
2023/04/30 11:08:32;;;;;;;2.45;0.50;;;;;;;;;;5051947;28;20041;-71
2023/04/30 11:11:04;;;;;;;1.45;0.60;;;;;;;;;;5052245;28;20470;-71
2023/04/30 11:13:41;;;;;;;0.90;0.60;;;;;;;;;;5052164;28;20021;-71
2023/04/30 11:16:07;;;;;;;2.25;0.60;;;;;;;;;;5052401;28;20024;-71
2023/04/30 11:18:33;;;;;;;1.92;0.60;;;;;;;;;;5052042;28;20458;-71
2023/04/30 11:21:02;;;;;;;2.53;0.73;;;;;;;;;;5051925;28;20044;-72
2023/04/30 11:23:28;;;;;;;3.55;0.80;;;;;;;;;;5051996;28;20066;-72
2023/04/30 11:25:59;;;;;;;0.77;0.50;;;;;;;;;;5052094;28;20029;-72
2023/04/30 11:28:28;;;;;;;0.52;0.52;;;;;;;;;;5052395;28;20041;-72
2023/04/30 11:30:55;;;;;;;2.03;0.70;;;;;;;;;;5051876;28;20425;-72
2023/04/30 11:33:22;;;;;;;7.13;0.80;;;;;;;;;;5052250;28;20043;-72
2023/04/30 11:35:53;;;;;;;2.50;0.80;;;;;;;;;;5050590;28;20059;-72
2023/04/30 11:38:21;;;;;;;1.27;0.73;;;;;;;;;;5051915;28;20036;-72
2023/04/30 11:40:48;;;;;;;1.85;0.90;;;;;;;;;;5051739;28;20389;-72
2023/04/30 11:43:23;;;;;;;1.15;0.60;;;;;;;;;;5051874;28;20017;-72
2023/04/30 11:46:08;;;;;;;1.95;0.80;;;;;;;;;;5050758;28;20029;-72
2023/04/30 11:48:36;;;;;;;0.70;0.70;;;;;;;;;;5051780;28;20036;-72
2023/04/30 11:51:03;;;;;;;2.35;0.50;;;;;;;;;;5051638;28;20514;-72
2023/04/30 11:53:30;;;;;;;1.20;0.65;;;;;;;;;;5051882;28;20033;-72
2023/04/30 11:55:57;;;;;;;1.05;0.70;;;;;;;;;;5050527;28;20078;-72
2023/04/30 11:58:23;;;;;;;1.02;0.52;;;;;;;;;;5051710;28;20400;-72
2023/04/30 12:00:51;;;;;;;1.30;0.80;;;;;;;;;;5051576;28;20029;-72
2023/04/30 12:03:17;;;;;;;1.45;0.60;;;;;;;;;;5050525;28;20032;-72
2023/04/30 12:05:46;;;;;;;3.80;0.80;;;;;;;;;;5051801;28;20336;-72
2023/04/30 12:08:12;;;;;;;1.15;0.68;;;;;;;;;;5051499;28;20025;-72
2023/04/30 12:10:38;;;;;;;1.38;0.60;;;;;;;;;;5051587;28;20524;-72
2023/04/30 12:13:05;;;;;;;1.00;0.70;;;;;;;;;;5051826;28;20025;-71
2023/04/30 12:15:32;;;;;;;1.23;0.80;;;;;;;;;;5054224;28;20051;-72
2023/04/30 12:17:59;;;;;;;1.23;0.57;;;;;;;;;;5055428;28;20511;-72
2023/04/30 12:20:27;;;;;;;3.40;0.60;;;;;;;;;;5055397;28;20021;-72
2023/04/30 12:22:53;;;;;;;3.67;0.60;;;;;;;;;;5055304;28;20021;-72
2023/04/30 12:25:20;;;;;;;0.50;0.50;;;;;;;;;;5055261;28;20031;-72
2023/04/30 12:27:47;;;;;;;3.03;0.60;;;;;;;;;;5055509;28;20021;-72
2023/04/30 12:30:14;;;;;;;0.77;0.47;;;;;;;;;;5055016;28;20037;-71
2023/04/30 12:32:44;;;;;;;1.85;0.73;;;;;;;;;;5055200;28;20443;-72
2023/04/30 12:35:18;;;;;;;3.58;0.70;;;;;;;;;;5054888;28;20043;-71
2023/04/30 12:37:45;;;;;;;2.67;0.60;;;;;;;;;;5055274;28;20025;-70
2023/04/30 12:40:12;;;;;;;0.52;0.40;;;;;;;;;;5054960;28;20116;-71
2023/04/30 12:42:39;;;;;;;0.77;0.43;;;;;;;;;;5055043;28;20021;-70
2023/04/30 12:45:06;;;;;;;1.13;0.68;;;;;;;;;;5055163;28;20035;-71
2023/04/30 12:47:32;;;;;;;6.10;1.15;;;;;;;;;;5053701;28;20032;-71
2023/04/30 12:49:58;;;;;;;1.83;0.60;;;;;;;;;;5054549;28;20037;-71
2023/04/30 12:52:25;;;;;;;0.68;0.60;;;;;;;;;;5055065;28;20029;-72
2023/04/30 12:54:53;;;;;;;1.48;0.50;;;;;;;;;;5054644;28;20031;-71
2023/04/30 12:57:20;;;;;;;2.50;0.90;;;;;;;;;;5054704;28;20498;-71
2023/04/30 12:59:49;;;;;;;2.05;0.77;;;;;;;;;;5054580;28;20028;-72
2023/04/30 13:02:15;;;;;;;2.58;0.80;;;;;;;;;;5053180;28;20489;-72
2023/04/30 13:04:41;;;;;;;3.10;1.02;;;;;;;;;;5054875;28;20043;-71
2023/04/30 13:07:08;;;;;;;2.00;0.90;;;;;;;;;;5054564;28;20021;-71
2023/04/30 13:09:35;;;;;;;2.33;0.60;;;;;;;;;;5054385;28;20040;-71
2023/04/30 13:12:02;;;;;;;2.28;0.93;;;;;;;;;;5054587;28;20021;-71
2023/04/30 13:14:28;;;;;;;3.38;0.50;;;;;;;;;;5054663;28;20401;-71
2023/04/30 13:16:55;;;;;;;3.15;0.90;;;;;;;;;;5054287;28;20029;-71
2023/04/30 13:19:21;;;;;;;2.10;0.70;;;;;;;;;;5054516;28;20029;-71
2023/04/30 13:21:47;;;;;;;2.40;0.70;;;;;;;;;;5053285;28;20029;-71
2023/04/30 13:24:14;;;;;;;3.10;0.90;;;;;;;;;;5054308;28;20509;-71
2023/04/30 13:26:41;;;;;;;1.73;0.60;;;;;;;;;;5054058;28;20021;-71
2023/04/30 13:29:07;;;;;;;1.02;0.65;;;;;;;;;;5053729;28;20047;-71
2023/04/30 13:31:34;;;;;;;2.40;0.60;;;;;;;;;;5053723;28;20524;-71
2023/04/30 13:34:00;;;;;;;1.10;0.80;;;;;;;;;;5054302;28;20029;-71
2023/04/30 13:36:27;;;;;;;1.77;0.80;;;;;;;;;;5054150;28;20025;-71
2023/04/30 13:38:53;;;;;;;1.88;0.40;;;;;;;;;;5053822;28;20021;-71
2023/04/30 13:41:21;;;;;;;2.42;0.70;;;;;;;;;;5054091;28;20029;-71
2023/04/30 13:43:48;;;;;;;2.58;0.80;;;;;;;;;;5053874;28;20017;-71
2023/04/30 13:46:15;;;;;;;0.70;0.70;;;;;;;;;;5053788;28;20059;-71
2023/04/30 13:48:41;;;;;;;2.42;0.60;;;;;;;;;;5053741;28;20033;-71
2023/04/30 13:51:08;;;;;;;3.65;0.70;;;;;;;;;;5053869;28;20020;-71
2023/04/30 13:53:36;;;;;;;3.03;0.60;;;;;;;;;;5053930;28;20031;-70
2023/04/30 13:56:02;;;;;;;1.75;0.60;;;;;;;;;;5053847;28;20026;-71
2023/04/30 13:58:28;;;;;;;0.65;0.65;;;;;;;;;;5053561;28;20494;-71
2023/04/30 14:00:55;;;;;;;0.73;0.63;;;;;;;;;;5053311;28;20017;-71
2023/04/30 14:03:21;;;;;;;1.80;0.63;;;;;;;;;;5053524;28;20029;-71
2023/04/30 14:05:47;;;;;;;2.28;0.77;;;;;;;;;;5053353;28;20478;-71
2023/04/30 14:08:14;;;;;;;0.68;0.57;;;;;;;;;;5053300;28;20047;-71
2023/04/30 14:10:41;;;;;;;2.10;0.50;;;;;;;;;;5053551;28;20020;-71
2023/04/30 14:13:07;;;;;;;1.83;0.60;;;;;;;;;;5053622;28;20029;-71
2023/04/30 14:15:34;;;;;;;2.25;0.50;;;;;;;;;;5053153;28;20481;-71
2023/04/30 14:18:00;;;;;;;2.00;0.75;;;;;;;;;;5053029;28;20508;-71
2023/04/30 14:20:27;;;;;;;1.20;0.50;;;;;;;;;;5053521;28;20047;-71
2023/04/30 14:22:53;;;;;;;3.30;0.70;;;;;;;;;;5053071;28;20025;-71
2023/04/30 14:25:20;;;;;;;1.17;0.70;;;;;;;;;;5053329;28;20032;-71
2023/04/30 14:27:46;;;;;;;1.30;0.55;;;;;;;;;;5053022;28;20043;-71
2023/04/30 14:30:13;;;;;;;1.15;0.70;;;;;;;;;;5052786;28;20591;-71
2023/04/30 14:32:39;;;;;;;0.85;0.50;;;;;;;;;;5053096;28;20025;-71
2023/04/30 14:35:06;;;;;;;3.65;0.70;;;;;;;;;;5052969;28;20027;-71
2023/04/30 14:37:32;;;;;;;2.13;0.60;;;;;;;;;;5052164;28;20025;-70
2023/04/30 14:40:00;;;;;;;2.42;0.88;;;;;;;;;;5052723;28;20032;-71
2023/04/30 14:42:27;;;;;;;1.05;0.52;;;;;;;;;;5052930;28;20021;-70
2023/04/30 14:44:53;;;;;;;0.50;0.50;;;;;;;;;;5052416;28;20021;-70